sensor_id;sensor_type;location;lat;lon;timestamp;pressure;altitude;pressure_sealevel;temperature;humidity
78431;BME280;67727;50.236;22.452;2024-02-26T00:00:13;98997.67;;;8.93;85.69
78431;BME280;67727;50.236;22.452;2024-02-26T00:03:01;98987.73;;;8.91;86.22
78431;BME280;67727;50.236;22.452;2024-02-26T00:05:28;98981.42;;;8.88;86.19
78431;BME280;67727;50.236;22.452;2024-02-26T00:07:55;98980.66;;;8.86;86.19
78431;BME280;67727;50.236;22.452;2024-02-26T00:10:22;98981.75;;;8.84;86.77
78431;BME280;67727;50.236;22.452;2024-02-26T00:12:50;98967.46;;;8.81;86.70
78431;BME280;67727;50.236;22.452;2024-02-26T00:15:17;98963.38;;;8.79;86.99
78431;BME280;67727;50.236;22.452;2024-02-26T00:17:44;98963.89;;;8.76;87.02
78431;BME280;67727;50.236;22.452;2024-02-26T00:20:11;98956.47;;;8.73;87.00
78431;BME280;67727;50.236;22.452;2024-02-26T00:22:38;98948.56;;;8.70;87.09
78431;BME280;67727;50.236;22.452;2024-02-26T00:25:06;98948.46;;;8.67;87.22
78431;BME280;67727;50.236;22.452;2024-02-26T00:27:33;98953.38;;;8.68;87.32
78431;BME280;67727;50.236;22.452;2024-02-26T00:30:00;98945.54;;;8.67;87.29
78431;BME280;67727;50.236;22.452;2024-02-26T00:32:27;98947.50;;;8.65;87.28
78431;BME280;67727;50.236;22.452;2024-02-26T00:34:54;98949.55;;;8.66;87.38
78431;BME280;67727;50.236;22.452;2024-02-26T00:37:21;98946.61;;;8.66;87.32
78431;BME280;67727;50.236;22.452;2024-02-26T00:39:48;98942.74;;;8.65;87.47
78431;BME280;67727;50.236;22.452;2024-02-26T00:42:14;98943.17;;;8.65;87.32
78431;BME280;67727;50.236;22.452;2024-02-26T00:44:41;98947.31;;;8.64;87.17
78431;BME280;67727;50.236;22.452;2024-02-26T00:47:08;98954.70;;;8.64;87.30
78431;BME280;67727;50.236;22.452;2024-02-26T00:49:37;98958.16;;;8.64;86.91
78431;BME280;67727;50.236;22.452;2024-02-26T00:52:04;98961.33;;;8.65;87.11
78431;BME280;67727;50.236;22.452;2024-02-26T00:54:31;98972.79;;;8.64;87.52
78431;BME280;67727;50.236;22.452;2024-02-26T00:56:58;98970.98;;;8.65;87.51
78431;BME280;67727;50.236;22.452;2024-02-26T00:59:25;98964.10;;;8.66;87.72
78431;BME280;67727;50.236;22.452;2024-02-26T01:01:51;98958.52;;;8.63;87.62
78431;BME280;67727;50.236;22.452;2024-02-26T01:04:18;98957.00;;;8.62;88.05
78431;BME280;67727;50.236;22.452;2024-02-26T01:06:45;98953.30;;;8.63;87.42
78431;BME280;67727;50.236;22.452;2024-02-26T01:09:12;98948.46;;;8.63;87.76
78431;BME280;67727;50.236;22.452;2024-02-26T01:11:39;98948.39;;;8.64;87.74
78431;BME280;67727;50.236;22.452;2024-02-26T01:14:06;98947.95;;;8.63;87.56
78431;BME280;67727;50.236;22.452;2024-02-26T01:16:33;98949.98;;;8.64;87.55
78431;BME280;67727;50.236;22.452;2024-02-26T01:19:00;98949.38;;;8.66;87.59
78431;BME280;67727;50.236;22.452;2024-02-26T01:21:27;98943.70;;;8.66;87.38
78431;BME280;67727;50.236;22.452;2024-02-26T01:23:56;98949.80;;;8.68;87.53
78431;BME280;67727;50.236;22.452;2024-02-26T01:26:23;98950.35;;;8.69;87.32
78431;BME280;67727;50.236;22.452;2024-02-26T01:28:50;98949.31;;;8.71;87.68
78431;BME280;67727;50.236;22.452;2024-02-26T01:31:17;98948.45;;;8.72;87.47
78431;BME280;67727;50.236;22.452;2024-02-26T01:33:44;98955.94;;;8.73;86.92
78431;BME280;67727;50.236;22.452;2024-02-26T01:36:11;98958.67;;;8.74;87.11
78431;BME280;67727;50.236;22.452;2024-02-26T01:38:38;98963.33;;;8.73;86.69
78431;BME280;67727;50.236;22.452;2024-02-26T01:41:05;98962.68;;;8.73;86.94
78431;BME280;67727;50.236;22.452;2024-02-26T01:43:33;98960.48;;;8.72;87.19
78431;BME280;67727;50.236;22.452;2024-02-26T01:46:00;98960.20;;;8.71;87.14
78431;BME280;67727;50.236;22.452;2024-02-26T01:48:27;98957.88;;;8.70;87.27
78431;BME280;67727;50.236;22.452;2024-02-26T01:50:54;98954.66;;;8.69;87.64
78431;BME280;67727;50.236;22.452;2024-02-26T01:53:21;98948.44;;;8.66;87.19
78431;BME280;67727;50.236;22.452;2024-02-26T01:55:48;98943.30;;;8.62;87.46
78431;BME280;67727;50.236;22.452;2024-02-26T01:58:16;98937.40;;;8.59;87.52
78431;BME280;67727;50.236;22.452;2024-02-26T02:00:43;98940.29;;;8.56;87.48
78431;BME280;67727;50.236;22.452;2024-02-26T02:03:10;98937.27;;;8.55;87.43
78431;BME280;67727;50.236;22.452;2024-02-26T02:05:37;98935.98;;;8.53;87.76
78431;BME280;67727;50.236;22.452;2024-02-26T02:08:10;98938.17;;;8.51;87.70
78431;BME280;67727;50.236;22.452;2024-02-26T02:10:38;98938.60;;;8.49;87.98
78431;BME280;67727;50.236;22.452;2024-02-26T02:13:05;98930.64;;;8.46;88.29
78431;BME280;67727;50.236;22.452;2024-02-26T02:15:32;98927.88;;;8.42;87.78
78431;BME280;67727;50.236;22.452;2024-02-26T02:17:59;98923.70;;;8.40;88.27
78431;BME280;67727;50.236;22.452;2024-02-26T02:20:34;98924.68;;;8.38;88.26
78431;BME280;67727;50.236;22.452;2024-02-26T02:23:02;98925.07;;;8.39;88.42
78431;BME280;67727;50.236;22.452;2024-02-26T02:25:29;98919.73;;;8.40;88.19
78431;BME280;67727;50.236;22.452;2024-02-26T02:27:56;98911.73;;;8.40;88.44
78431;BME280;67727;50.236;22.452;2024-02-26T02:30:29;98915.15;;;8.41;88.39
78431;BME280;67727;50.236;22.452;2024-02-26T02:32:57;98926.36;;;8.42;88.45
78431;BME280;67727;50.236;22.452;2024-02-26T02:35:27;98950.22;;;8.42;88.26
78431;BME280;67727;50.236;22.452;2024-02-26T02:37:56;98947.94;;;8.42;88.05
78431;BME280;67727;50.236;22.452;2024-02-26T02:40:23;98956.64;;;8.43;88.15
78431;BME280;67727;50.236;22.452;2024-02-26T02:42:50;98956.80;;;8.43;88.05
78431;BME280;67727;50.236;22.452;2024-02-26T02:45:18;98952.96;;;8.44;88.17
78431;BME280;67727;50.236;22.452;2024-02-26T02:47:45;98958.08;;;8.44;88.33
78431;BME280;67727;50.236;22.452;2024-02-26T02:50:12;98948.20;;;8.44;88.06
78431;BME280;67727;50.236;22.452;2024-02-26T02:52:39;98949.45;;;8.43;87.92
78431;BME280;67727;50.236;22.452;2024-02-26T02:55:06;98948.80;;;8.42;87.90
78431;BME280;67727;50.236;22.452;2024-02-26T02:57:33;98945.23;;;8.44;88.27
78431;BME280;67727;50.236;22.452;2024-02-26T03:00:01;98944.10;;;8.45;88.38
78431;BME280;67727;50.236;22.452;2024-02-26T03:02:30;98934.91;;;8.44;88.34
78431;BME280;67727;50.236;22.452;2024-02-26T03:04:57;98930.02;;;8.42;88.18
78431;BME280;67727;50.236;22.452;2024-02-26T03:07:24;98931.30;;;8.40;88.05
78431;BME280;67727;50.236;22.452;2024-02-26T03:09:51;98930.63;;;8.38;88.37
78431;BME280;67727;50.236;22.452;2024-02-26T03:12:18;98926.62;;;8.35;88.36
78431;BME280;67727;50.236;22.452;2024-02-26T03:14:45;98930.29;;;8.32;88.83
78431;BME280;67727;50.236;22.452;2024-02-26T03:17:12;98936.17;;;8.28;89.11
78431;BME280;67727;50.236;22.452;2024-02-26T03:19:40;98940.42;;;8.25;88.85
78431;BME280;67727;50.236;22.452;2024-02-26T03:22:07;98942.17;;;8.23;89.06
78431;BME280;67727;50.236;22.452;2024-02-26T03:24:34;98945.43;;;8.20;89.08
78431;BME280;67727;50.236;22.452;2024-02-26T03:27:01;98947.13;;;8.17;89.37
78431;BME280;67727;50.236;22.452;2024-02-26T03:29:28;98946.61;;;8.14;89.61
78431;BME280;67727;50.236;22.452;2024-02-26T03:31:55;98947.15;;;8.13;89.95
78431;BME280;67727;50.236;22.452;2024-02-26T03:34:21;98947.23;;;8.11;89.79
78431;BME280;67727;50.236;22.452;2024-02-26T03:36:48;98944.27;;;8.09;89.99
78431;BME280;67727;50.236;22.452;2024-02-26T03:39:15;98949.81;;;8.07;90.21
78431;BME280;67727;50.236;22.452;2024-02-26T03:41:42;98952.60;;;8.06;90.10
78431;BME280;67727;50.236;22.452;2024-02-26T03:44:09;98952.55;;;8.04;90.06
78431;BME280;67727;50.236;22.452;2024-02-26T03:46:36;98953.20;;;8.03;90.41
78431;BME280;67727;50.236;22.452;2024-02-26T03:49:03;98947.69;;;8.01;90.16
78431;BME280;67727;50.236;22.452;2024-02-26T03:51:30;98944.23;;;8.01;90.76
78431;BME280;67727;50.236;22.452;2024-02-26T03:53:58;98948.70;;;8.01;90.54
78431;BME280;67727;50.236;22.452;2024-02-26T03:56:26;98948.71;;;8.01;90.35
78431;BME280;67727;50.236;22.452;2024-02-26T03:58:53;98949.20;;;8.02;90.48
78431;BME280;67727;50.236;22.452;2024-02-26T04:01:20;98951.27;;;8.02;90.47
78431;BME280;67727;50.236;22.452;2024-02-26T04:03:47;98948.59;;;8.02;90.37
78431;BME280;67727;50.236;22.452;2024-02-26T04:06:14;98953.74;;;8.02;90.44
78431;BME280;67727;50.236;22.452;2024-02-26T04:08:41;98957.48;;;8.03;90.56
78431;BME280;67727;50.236;22.452;2024-02-26T04:11:08;98955.95;;;8.04;90.40
78431;BME280;67727;50.236;22.452;2024-02-26T04:13:35;98955.06;;;8.06;90.25
78431;BME280;67727;50.236;22.452;2024-02-26T04:16:01;98956.95;;;8.06;90.36
78431;BME280;67727;50.236;22.452;2024-02-26T04:18:29;98957.98;;;8.06;90.42
78431;BME280;67727;50.236;22.452;2024-02-26T04:20:56;98957.10;;;8.06;90.54
78431;BME280;67727;50.236;22.452;2024-02-26T04:23:24;98951.27;;;8.05;90.70
78431;BME280;67727;50.236;22.452;2024-02-26T04:25:51;98951.94;;;8.04;90.79
78431;BME280;67727;50.236;22.452;2024-02-26T04:28:20;98952.73;;;8.02;91.06
78431;BME280;67727;50.236;22.452;2024-02-26T04:30:52;98954.02;;;8.01;91.03
78431;BME280;67727;50.236;22.452;2024-02-26T04:33:19;98953.56;;;8.00;91.14
78431;BME280;67727;50.236;22.452;2024-02-26T04:35:46;98954.76;;;7.99;91.27
78431;BME280;67727;50.236;22.452;2024-02-26T04:38:14;98954.95;;;7.99;90.88
78431;BME280;67727;50.236;22.452;2024-02-26T04:40:41;98957.76;;;7.97;90.83
78431;BME280;67727;50.236;22.452;2024-02-26T04:43:07;98958.64;;;7.96;91.46
78431;BME280;67727;50.236;22.452;2024-02-26T04:45:34;98956.79;;;7.94;91.50
78431;BME280;67727;50.236;22.452;2024-02-26T04:48:02;98953.85;;;7.91;91.56
78431;BME280;67727;50.236;22.452;2024-02-26T04:50:29;98945.19;;;7.90;91.69
78431;BME280;67727;50.236;22.452;2024-02-26T04:52:56;98945.20;;;7.89;91.34
78431;BME280;67727;50.236;22.452;2024-02-26T04:55:23;98950.51;;;7.87;91.79
78431;BME280;67727;50.236;22.452;2024-02-26T04:57:50;98946.33;;;7.87;91.66
78431;BME280;67727;50.236;22.452;2024-02-26T05:00:17;98953.55;;;7.87;91.88
78431;BME280;67727;50.236;22.452;2024-02-26T05:02:44;98950.84;;;7.87;91.88
78431;BME280;67727;50.236;22.452;2024-02-26T05:05:11;98947.87;;;7.87;92.11
78431;BME280;67727;50.236;22.452;2024-02-26T05:07:40;98945.60;;;7.87;91.90
78431;BME280;67727;50.236;22.452;2024-02-26T05:10:07;98943.36;;;7.87;92.05
78431;BME280;67727;50.236;22.452;2024-02-26T05:12:34;98945.55;;;7.87;92.13
78431;BME280;67727;50.236;22.452;2024-02-26T05:15:03;98954.66;;;7.87;91.98
78431;BME280;67727;50.236;22.452;2024-02-26T05:17:30;98959.77;;;7.88;92.06
78431;BME280;67727;50.236;22.452;2024-02-26T05:19:57;98957.40;;;7.87;92.15
78431;BME280;67727;50.236;22.452;2024-02-26T05:22:24;98959.50;;;7.87;91.84
78431;BME280;67727;50.236;22.452;2024-02-26T05:24:51;98964.80;;;7.87;91.90
78431;BME280;67727;50.236;22.452;2024-02-26T05:27:18;98963.50;;;7.87;92.16
78431;BME280;67727;50.236;22.452;2024-02-26T05:29:45;98962.31;;;7.87;92.11
78431;BME280;67727;50.236;22.452;2024-02-26T05:32:12;98958.56;;;7.86;92.03
78431;BME280;67727;50.236;22.452;2024-02-26T05:34:39;98957.20;;;7.85;92.03
78431;BME280;67727;50.236;22.452;2024-02-26T05:37:08;98958.36;;;7.84;92.07
78431;BME280;67727;50.236;22.452;2024-02-26T05:39:34;98959.23;;;7.83;92.56
78431;BME280;67727;50.236;22.452;2024-02-26T05:42:01;98965.92;;;7.82;92.12
78431;BME280;67727;50.236;22.452;2024-02-26T05:44:28;98965.21;;;7.80;92.25
78431;BME280;67727;50.236;22.452;2024-02-26T05:46:56;98969.75;;;7.79;92.24
78431;BME280;67727;50.236;22.452;2024-02-26T05:49:23;98974.96;;;7.78;92.18
78431;BME280;67727;50.236;22.452;2024-02-26T05:51:50;98975.35;;;7.76;92.58
78431;BME280;67727;50.236;22.452;2024-02-26T05:54:16;98976.67;;;7.75;91.85
78431;BME280;67727;50.236;22.452;2024-02-26T05:56:44;98976.71;;;7.75;92.55
78431;BME280;67727;50.236;22.452;2024-02-26T05:59:10;98977.44;;;7.75;92.07
78431;BME280;67727;50.236;22.452;2024-02-26T06:01:37;98985.55;;;7.75;92.10
78431;BME280;67727;50.236;22.452;2024-02-26T06:04:04;98989.98;;;7.74;92.16
78431;BME280;67727;50.236;22.452;2024-02-26T06:06:32;98992.83;;;7.75;92.26
78431;BME280;67727;50.236;22.452;2024-02-26T06:08:59;98991.45;;;7.75;92.07
78431;BME280;67727;50.236;22.452;2024-02-26T06:11:26;98993.45;;;7.76;92.26
78431;BME280;67727;50.236;22.452;2024-02-26T06:13:54;98989.89;;;7.76;92.16
78431;BME280;67727;50.236;22.452;2024-02-26T06:16:20;98993.50;;;7.79;92.10
78431;BME280;67727;50.236;22.452;2024-02-26T06:18:47;98995.70;;;7.81;91.94
78431;BME280;67727;50.236;22.452;2024-02-26T06:21:14;98996.86;;;7.83;91.78
78431;BME280;67727;50.236;22.452;2024-02-26T06:23:41;98996.39;;;7.84;91.78
78431;BME280;67727;50.236;22.452;2024-02-26T06:26:08;98996.95;;;7.85;91.90
78431;BME280;67727;50.236;22.452;2024-02-26T06:28:36;99000.03;;;7.88;91.61
78431;BME280;67727;50.236;22.452;2024-02-26T06:31:07;98997.36;;;7.91;91.76
78431;BME280;67727;50.236;22.452;2024-02-26T06:33:34;98998.19;;;7.94;91.71
78431;BME280;67727;50.236;22.452;2024-02-26T06:36:01;99003.14;;;7.96;91.58
78431;BME280;67727;50.236;22.452;2024-02-26T06:38:28;98997.30;;;7.98;91.60
78431;BME280;67727;50.236;22.452;2024-02-26T06:40:55;98994.84;;;8.00;91.46
78431;BME280;67727;50.236;22.452;2024-02-26T06:43:21;98996.41;;;8.01;91.65
78431;BME280;67727;50.236;22.452;2024-02-26T06:45:48;98999.76;;;8.02;91.38
78431;BME280;67727;50.236;22.452;2024-02-26T06:48:15;98995.14;;;8.03;91.49
78431;BME280;67727;50.236;22.452;2024-02-26T06:50:43;98994.59;;;8.05;91.66
78431;BME280;67727;50.236;22.452;2024-02-26T06:53:09;98996.36;;;8.07;91.42
78431;BME280;67727;50.236;22.452;2024-02-26T06:55:36;98995.04;;;8.10;91.14
78431;BME280;67727;50.236;22.452;2024-02-26T06:58:06;98997.52;;;8.13;91.18
78431;BME280;67727;50.236;22.452;2024-02-26T07:00:33;99001.41;;;8.17;90.97
78431;BME280;67727;50.236;22.452;2024-02-26T07:03:00;98999.25;;;8.21;91.04
78431;BME280;67727;50.236;22.452;2024-02-26T07:05:27;99004.09;;;8.24;90.43
78431;BME280;67727;50.236;22.452;2024-02-26T07:07:54;99010.41;;;8.26;90.43
78431;BME280;67727;50.236;22.452;2024-02-26T07:10:21;99002.99;;;8.26;90.16
78431;BME280;67727;50.236;22.452;2024-02-26T07:12:48;99005.13;;;8.26;90.15
78431;BME280;67727;50.236;22.452;2024-02-26T07:15:15;99005.98;;;8.28;90.39
78431;BME280;67727;50.236;22.452;2024-02-26T07:17:42;99007.18;;;8.29;90.21
78431;BME280;67727;50.236;22.452;2024-02-26T07:20:13;99012.52;;;8.32;89.94
78431;BME280;67727;50.236;22.452;2024-02-26T07:22:41;99012.60;;;8.34;89.99
78431;BME280;67727;50.236;22.452;2024-02-26T07:25:09;99013.05;;;8.35;89.86
78431;BME280;67727;50.236;22.452;2024-02-26T07:27:40;99019.04;;;8.35;89.65
78431;BME280;67727;50.236;22.452;2024-02-26T07:30:07;99017.22;;;8.34;89.55
78431;BME280;67727;50.236;22.452;2024-02-26T07:32:35;99014.09;;;8.32;89.49
78431;BME280;67727;50.236;22.452;2024-02-26T07:35:02;99018.27;;;8.32;89.18
78431;BME280;67727;50.236;22.452;2024-02-26T07:37:29;99027.37;;;8.33;89.42
78431;BME280;67727;50.236;22.452;2024-02-26T07:39:56;99026.61;;;8.35;89.36
78431;BME280;67727;50.236;22.452;2024-02-26T07:42:23;99022.39;;;8.36;89.29
78431;BME280;67727;50.236;22.452;2024-02-26T07:44:50;99019.90;;;8.38;89.21
78431;BME280;67727;50.236;22.452;2024-02-26T07:47:18;99018.44;;;8.40;89.25
78431;BME280;67727;50.236;22.452;2024-02-26T07:49:45;99017.91;;;8.40;89.21
78431;BME280;67727;50.236;22.452;2024-02-26T07:52:11;99021.44;;;8.43;89.31
78431;BME280;67727;50.236;22.452;2024-02-26T07:54:38;99023.24;;;8.46;89.26
78431;BME280;67727;50.236;22.452;2024-02-26T07:57:05;99025.90;;;8.50;89.25
78431;BME280;67727;50.236;22.452;2024-02-26T07:59:33;99026.85;;;8.53;89.17
78431;BME280;67727;50.236;22.452;2024-02-26T08:02:00;99028.30;;;8.55;89.06
78431;BME280;67727;50.236;22.452;2024-02-26T08:04:30;99025.42;;;8.56;88.49
78431;BME280;67727;50.236;22.452;2024-02-26T08:06:57;99020.50;;;8.56;88.52
78431;BME280;67727;50.236;22.452;2024-02-26T08:09:24;99020.50;;;8.56;88.55
78431;BME280;67727;50.236;22.452;2024-02-26T08:11:51;99017.75;;;8.57;88.71
78431;BME280;67727;50.236;22.452;2024-02-26T08:14:18;99017.80;;;8.58;88.35
78431;BME280;67727;50.236;22.452;2024-02-26T08:16:45;99025.20;;;8.59;88.61
78431;BME280;67727;50.236;22.452;2024-02-26T08:19:12;99023.69;;;8.62;88.66
78431;BME280;67727;50.236;22.452;2024-02-26T08:21:41;99024.31;;;8.64;88.78
78431;BME280;67727;50.236;22.452;2024-02-26T08:24:09;99027.38;;;8.66;88.74
78431;BME280;67727;50.236;22.452;2024-02-26T08:26:36;99031.47;;;8.69;88.46
78431;BME280;67727;50.236;22.452;2024-02-26T08:29:03;99031.60;;;8.72;88.57
78431;BME280;67727;50.236;22.452;2024-02-26T08:31:30;99030.52;;;8.75;88.48
78431;BME280;67727;50.236;22.452;2024-02-26T08:33:57;99029.39;;;8.79;88.48
78431;BME280;67727;50.236;22.452;2024-02-26T08:36:25;99031.26;;;8.82;88.43
78431;BME280;67727;50.236;22.452;2024-02-26T08:38:52;99028.03;;;8.86;88.35
78431;BME280;67727;50.236;22.452;2024-02-26T08:41:19;99026.16;;;8.89;88.07
78431;BME280;67727;50.236;22.452;2024-02-26T08:43:46;99025.00;;;8.93;88.07
78431;BME280;67727;50.236;22.452;2024-02-26T08:46:13;99020.42;;;8.97;87.75
78431;BME280;67727;50.236;22.452;2024-02-26T08:48:40;99019.38;;;9.02;88.27
78431;BME280;67727;50.236;22.452;2024-02-26T08:51:08;99016.94;;;9.08;87.72
78431;BME280;67727;50.236;22.452;2024-02-26T08:53:36;99014.40;;;9.13;87.65
78431;BME280;67727;50.236;22.452;2024-02-26T08:56:03;99011.01;;;9.16;87.45
78431;BME280;67727;50.236;22.452;2024-02-26T08:58:30;99010.79;;;9.20;87.23
78431;BME280;67727;50.236;22.452;2024-02-26T09:00:57;99016.05;;;9.22;87.09
78431;BME280;67727;50.236;22.452;2024-02-26T09:03:24;99017.95;;;9.27;86.93
78431;BME280;67727;50.236;22.452;2024-02-26T09:05:53;99015.25;;;9.32;87.23
78431;BME280;67727;50.236;22.452;2024-02-26T09:08:20;99014.31;;;9.38;87.05
78431;BME280;67727;50.236;22.452;2024-02-26T09:10:47;99015.90;;;9.45;87.13
78431;BME280;67727;50.236;22.452;2024-02-26T09:13:13;99018.33;;;9.51;87.01
78431;BME280;67727;50.236;22.452;2024-02-26T09:15:40;99020.77;;;9.60;86.86
78431;BME280;67727;50.236;22.452;2024-02-26T09:18:08;99018.54;;;9.67;87.03
78431;BME280;67727;50.236;22.452;2024-02-26T09:20:35;99022.43;;;9.74;86.52
78431;BME280;67727;50.236;22.452;2024-02-26T09:23:02;99021.51;;;9.82;86.37
78431;BME280;67727;50.236;22.452;2024-02-26T09:25:29;99016.44;;;9.90;86.65
78431;BME280;67727;50.236;22.452;2024-02-26T09:27:56;99022.36;;;9.98;86.15
78431;BME280;67727;50.236;22.452;2024-02-26T09:30:23;99027.25;;;10.04;85.86
78431;BME280;67727;50.236;22.452;2024-02-26T09:32:50;99026.90;;;10.10;85.95
78431;BME280;67727;50.236;22.452;2024-02-26T09:35:17;99031.40;;;10.16;85.77
78431;BME280;67727;50.236;22.452;2024-02-26T09:37:45;99033.99;;;10.25;86.02
78431;BME280;67727;50.236;22.452;2024-02-26T09:40:12;99029.52;;;10.34;85.76
78431;BME280;67727;50.236;22.452;2024-02-26T09:42:45;99031.50;;;10.44;85.82
78431;BME280;67727;50.236;22.452;2024-02-26T09:45:17;99027.20;;;10.52;85.48
78431;BME280;67727;50.236;22.452;2024-02-26T09:47:45;99024.43;;;10.64;85.58
78431;BME280;67727;50.236;22.452;2024-02-26T09:50:14;99026.83;;;10.74;85.25
78431;BME280;67727;50.236;22.452;2024-02-26T09:52:44;99024.69;;;10.82;84.63
78431;BME280;67727;50.236;22.452;2024-02-26T09:55:11;99027.30;;;10.93;84.66
78431;BME280;67727;50.236;22.452;2024-02-26T09:57:44;99024.70;;;11.01;84.40
78431;BME280;67727;50.236;22.452;2024-02-26T10:00:21;99026.49;;;11.14;84.41
78431;BME280;67727;50.236;22.452;2024-02-26T10:02:48;99023.25;;;11.27;83.96
78431;BME280;67727;50.236;22.452;2024-02-26T10:05:19;99020.71;;;11.37;83.50
78431;BME280;67727;50.236;22.452;2024-02-26T10:07:46;99023.74;;;11.50;83.49
78431;BME280;67727;50.236;22.452;2024-02-26T10:10:14;99019.21;;;11.61;82.94
78431;BME280;67727;50.236;22.452;2024-02-26T10:12:41;99019.84;;;11.68;82.06
78431;BME280;67727;50.236;22.452;2024-02-26T10:15:09;99013.92;;;11.74;82.14
78431;BME280;67727;50.236;22.452;2024-02-26T10:17:36;99014.15;;;11.78;81.47
78431;BME280;67727;50.236;22.452;2024-02-26T10:20:17;99007.45;;;11.78;80.91
78431;BME280;67727;50.236;22.452;2024-02-26T10:22:45;99009.33;;;11.78;81.02
78431;BME280;67727;50.236;22.452;2024-02-26T10:25:12;99005.20;;;11.80;81.13
78431;BME280;67727;50.236;22.452;2024-02-26T10:27:42;99008.07;;;11.82;81.09
78431;BME280;67727;50.236;22.452;2024-02-26T10:30:19;99007.25;;;11.86;80.68
78431;BME280;67727;50.236;22.452;2024-02-26T10:32:48;99004.87;;;11.88;80.20
78431;BME280;67727;50.236;22.452;2024-02-26T10:35:16;99003.90;;;11.88;80.21
78431;BME280;67727;50.236;22.452;2024-02-26T10:37:44;99005.88;;;11.90;80.07
78431;BME280;67727;50.236;22.452;2024-02-26T10:40:15;99000.40;;;11.91;80.08
78431;BME280;67727;50.236;22.452;2024-02-26T10:42:43;99001.42;;;11.91;79.99
78431;BME280;67727;50.236;22.452;2024-02-26T10:45:10;99002.96;;;11.93;79.78
78431;BME280;67727;50.236;22.452;2024-02-26T10:47:37;99001.52;;;11.94;79.84
78431;BME280;67727;50.236;22.452;2024-02-26T10:50:05;99003.42;;;11.97;80.16
78431;BME280;67727;50.236;22.452;2024-02-26T10:52:34;99000.98;;;12.02;80.29
78431;BME280;67727;50.236;22.452;2024-02-26T10:55:02;99001.02;;;12.08;80.04
78431;BME280;67727;50.236;22.452;2024-02-26T10:57:39;98993.76;;;12.13;80.15
78431;BME280;67727;50.236;22.452;2024-02-26T11:00:07;98997.15;;;12.19;79.69
78431;BME280;67727;50.236;22.452;2024-02-26T11:02:37;99000.67;;;12.25;79.59
78431;BME280;67727;50.236;22.452;2024-02-26T11:05:06;98998.90;;;12.28;78.69
78431;BME280;67727;50.236;22.452;2024-02-26T11:07:36;98997.36;;;12.29;78.73
78431;BME280;67727;50.236;22.452;2024-02-26T11:10:07;98993.29;;;12.30;78.71
78431;BME280;67727;50.236;22.452;2024-02-26T11:12:36;98988.65;;;12.34;78.77
78431;BME280;67727;50.236;22.452;2024-02-26T11:15:04;98982.23;;;12.38;78.64
78431;BME280;67727;50.236;22.452;2024-02-26T11:17:32;98986.03;;;12.43;78.41
78431;BME280;67727;50.236;22.452;2024-02-26T11:20:00;98982.38;;;12.47;78.32
78431;BME280;67727;50.236;22.452;2024-02-26T11:22:29;98980.86;;;12.53;78.34
78431;BME280;67727;50.236;22.452;2024-02-26T11:24:56;98979.99;;;12.60;78.23
78431;BME280;67727;50.236;22.452;2024-02-26T11:27:30;98976.80;;;12.68;77.95
78431;BME280;67727;50.236;22.452;2024-02-26T11:30:00;98976.98;;;12.74;77.32
78431;BME280;67727;50.236;22.452;2024-02-26T11:32:29;98981.39;;;12.81;77.66
78431;BME280;67727;50.236;22.452;2024-02-26T11:35:00;98983.37;;;12.89;78.06
78431;BME280;67727;50.236;22.452;2024-02-26T11:37:27;98982.06;;;12.98;77.89
78431;BME280;67727;50.236;22.452;2024-02-26T11:39:54;98985.49;;;13.04;77.60
78431;BME280;67727;50.236;22.452;2024-02-26T11:42:24;98985.08;;;13.09;77.21
78431;BME280;67727;50.236;22.452;2024-02-26T11:44:52;98987.42;;;13.13;77.13
78431;BME280;67727;50.236;22.452;2024-02-26T11:47:21;98992.41;;;13.17;76.58
78431;BME280;67727;50.236;22.452;2024-02-26T11:49:48;98989.45;;;13.19;76.80
78431;BME280;67727;50.236;22.452;2024-02-26T11:52:15;98988.08;;;13.20;76.50
78431;BME280;67727;50.236;22.452;2024-02-26T11:57:39;98990.55;;;13.19;75.82
78431;BME280;67727;50.236;22.452;2024-02-26T12:05:17;98994.75;;;13.21;76.47
78431;BME280;67727;50.236;22.452;2024-02-26T12:08:04;98993.13;;;13.21;76.24
78431;BME280;67727;50.236;22.452;2024-02-26T12:10:35;98986.78;;;13.19;76.17
78431;BME280;67727;50.236;22.452;2024-02-26T12:13:07;98985.92;;;13.19;76.14
78431;BME280;67727;50.236;22.452;2024-02-26T12:15:39;98988.05;;;13.21;76.41
78431;BME280;67727;50.236;22.452;2024-02-26T12:18:08;98988.86;;;13.22;76.12
78431;BME280;67727;50.236;22.452;2024-02-26T12:20:37;98989.04;;;13.26;76.26
78431;BME280;67727;50.236;22.452;2024-02-26T12:23:04;98988.77;;;13.30;75.99
78431;BME280;67727;50.236;22.452;2024-02-26T12:25:32;98990.64;;;13.37;75.68
78431;BME280;67727;50.236;22.452;2024-02-26T12:28:00;98989.98;;;13.44;75.15
78431;BME280;67727;50.236;22.452;2024-02-26T12:30:27;98991.58;;;13.53;75.43
78431;BME280;67727;50.236;22.452;2024-02-26T12:32:56;98987.30;;;13.63;75.37
78431;BME280;67727;50.236;22.452;2024-02-26T12:35:24;98989.79;;;13.72;74.74
78431;BME280;67727;50.236;22.452;2024-02-26T12:37:52;98987.08;;;13.75;74.39
78431;BME280;67727;50.236;22.452;2024-02-26T12:40:20;98987.08;;;13.78;75.17
78431;BME280;67727;50.236;22.452;2024-02-26T12:42:47;98991.16;;;13.83;75.19
78431;BME280;67727;50.236;22.452;2024-02-26T12:45:15;98994.70;;;13.89;75.62
78431;BME280;67727;50.236;22.452;2024-02-26T12:47:43;98999.75;;;13.94;75.46
78431;BME280;67727;50.236;22.452;2024-02-26T12:50:12;98998.57;;;13.98;75.33
78431;BME280;67727;50.236;22.452;2024-02-26T12:52:45;98997.40;;;14.01;75.58
78431;BME280;67727;50.236;22.452;2024-02-26T12:55:18;99004.30;;;14.04;75.51
78431;BME280;67727;50.236;22.452;2024-02-26T12:57:46;99006.63;;;14.06;75.36
78431;BME280;67727;50.236;22.452;2024-02-26T13:00:17;99005.01;;;14.09;75.58
78431;BME280;67727;50.236;22.452;2024-02-26T13:02:45;99012.22;;;14.09;75.51
78431;BME280;67727;50.236;22.452;2024-02-26T13:05:14;99010.58;;;14.10;75.51
78431;BME280;67727;50.236;22.452;2024-02-26T13:07:42;99013.04;;;14.10;75.55